createdAt,value
2024-03-24T00:00:28.841Z,11.1
2024-03-24T00:01:42.156Z,11.3
2024-03-24T00:02:56.450Z,10.6
2024-03-24T00:04:10.744Z,10.6
2024-03-24T00:05:25.038Z,11.1
2024-03-24T00:06:39.332Z,9.7
2024-03-24T00:07:53.626Z,10.2
2024-03-24T00:09:07.920Z,11.1
2024-03-24T00:10:22.214Z,10.8
2024-03-24T00:11:36.508Z,10
2024-03-24T00:12:50.802Z,10.4
2024-03-24T00:14:05.096Z,9.6
2024-03-24T00:15:19.390Z,10.2
2024-03-24T00:16:33.684Z,9.9
2024-03-24T00:17:46.994Z,10.7
2024-03-24T00:19:01.288Z,10.4
2024-03-24T00:20:15.582Z,9.9
2024-03-24T00:21:29.876Z,8.8
2024-03-24T00:22:44.170Z,10
2024-03-24T00:23:58.464Z,10.9
2024-03-24T00:25:12.758Z,9.5
2024-03-24T00:26:27.052Z,8.9
2024-03-24T00:27:41.346Z,10
2024-03-24T00:28:55.640Z,8.4
2024-03-24T00:30:09.934Z,9.3
2024-03-24T00:31:24.228Z,10.4
2024-03-24T00:32:38.522Z,10.8
2024-03-24T00:33:51.832Z,10
2024-03-24T00:35:06.126Z,10.2
2024-03-24T00:36:20.420Z,9.9
2024-03-24T00:37:34.714Z,10.9
2024-03-24T00:38:49.008Z,11.6
2024-03-24T00:40:03.302Z,10.3
2024-03-24T00:41:17.596Z,9.8
2024-03-24T00:42:31.890Z,10.1
2024-03-24T00:43:46.184Z,10.5
2024-03-24T00:45:00.478Z,9.7
2024-03-24T00:46:14.772Z,10.1
2024-03-24T00:47:29.066Z,9
2024-03-24T00:48:43.360Z,8.9
2024-03-24T00:49:56.670Z,10.6
2024-03-24T00:51:10.964Z,11.1
2024-03-24T00:52:25.258Z,9.7
2024-03-24T00:53:39.552Z,11.3
2024-03-24T00:54:53.846Z,11.8
2024-03-24T00:56:08.140Z,9.7
2024-03-24T00:57:22.434Z,10.1
2024-03-24T00:58:36.728Z,10.4
2024-03-24T00:59:51.022Z,8.3
2024-03-24T01:01:05.316Z,8.6
2024-03-24T01:02:19.610Z,10.1
2024-03-24T01:03:33.904Z,11.3
2024-03-24T01:04:48.198Z,8.3
2024-03-24T01:06:01.508Z,9.3
2024-03-24T01:07:15.802Z,8.5
2024-03-24T01:08:30.095Z,9.7
2024-03-24T01:09:44.390Z,8.9
2024-03-24T01:10:58.684Z,11.2
2024-03-24T01:12:12.978Z,9.7
2024-03-24T01:13:27.272Z,9.2
2024-03-24T01:14:41.566Z,10.8
2024-03-24T01:15:55.860Z,8.5
2024-03-24T01:17:10.154Z,9.1
2024-03-24T01:18:24.447Z,8.5
2024-03-24T01:19:38.742Z,9.4
2024-03-24T01:20:53.036Z,10.4
2024-03-24T01:22:06.346Z,10.9
2024-03-24T01:23:20.640Z,9.5
2024-03-24T01:24:34.934Z,9.5
2024-03-24T01:25:49.228Z,10.6
2024-03-24T01:27:03.522Z,10.3
2024-03-24T01:28:17.815Z,9.2
2024-03-24T01:29:32.109Z,10.1
2024-03-24T01:30:46.404Z,9.5
2024-03-24T01:32:00.697Z,11.4
2024-03-24T01:33:14.991Z,9.2
2024-03-24T01:34:29.285Z,9.3
2024-03-24T01:35:43.579Z,9.9
2024-03-24T01:36:57.873Z,10.8
2024-03-24T01:38:11.183Z,9.9
2024-03-24T01:39:25.477Z,9.7
2024-03-24T01:40:39.771Z,11.1
2024-03-24T01:41:54.066Z,9.9
2024-03-24T01:43:08.360Z,9.3
2024-03-24T01:44:22.654Z,8.4
2024-03-24T01:45:36.948Z,10.7
2024-03-24T01:46:51.242Z,11.1
2024-03-24T01:48:05.535Z,8.7
2024-03-24T01:49:19.829Z,8
2024-03-24T01:50:34.123Z,9
2024-03-24T01:51:48.419Z,10.5
2024-03-24T01:53:02.713Z,9.4
2024-03-24T01:54:16.023Z,8.7
2024-03-24T01:55:30.317Z,9.7
2024-03-24T01:56:44.611Z,11.6
2024-03-24T01:57:58.905Z,8.8
2024-03-24T01:59:13.199Z,8.1
2024-03-24T02:00:27.493Z,9.3
2024-03-24T02:01:41.787Z,8.3
2024-03-24T02:02:56.081Z,9.7
2024-03-24T02:04:10.375Z,10
2024-03-24T02:05:24.669Z,10.7
2024-03-24T02:06:38.963Z,7.6
2024-03-24T02:07:53.257Z,10.4
2024-03-24T02:09:07.551Z,9.4
2024-03-24T02:10:20.861Z,8.4
2024-03-24T02:11:35.155Z,9.3
2024-03-24T02:12:49.449Z,9.2
2024-03-24T02:14:03.743Z,9.6
2024-03-24T02:15:18.037Z,11.7
2024-03-24T02:16:32.331Z,11.9
2024-03-24T02:17:46.625Z,9.5
2024-03-24T02:19:00.919Z,9.7
2024-03-24T02:20:15.214Z,10.2
2024-03-24T02:21:29.508Z,9.6
2024-03-24T02:22:43.802Z,11.4
2024-03-24T02:23:58.096Z,10.2
2024-03-24T02:25:12.390Z,8.2
2024-03-24T02:26:26.684Z,9.8
2024-03-24T02:27:40.978Z,9.4
2024-03-24T02:28:54.288Z,9.6
2024-03-24T02:30:08.582Z,10.9
2024-03-24T02:31:22.876Z,10.3
2024-03-24T02:32:37.170Z,9.7
2024-03-24T02:33:51.464Z,8.9
2024-03-24T02:35:05.759Z,10.9
2024-03-24T02:36:20.053Z,10.1
2024-03-24T02:37:34.347Z,10.9
2024-03-24T02:38:48.641Z,9.5
2024-03-24T02:40:02.935Z,10
2024-03-24T02:41:17.229Z,10.3
2024-03-24T02:42:31.523Z,10
2024-03-24T02:43:45.817Z,10.8
2024-03-24T02:44:59.127Z,11.1
2024-03-24T02:46:13.421Z,9.3
2024-03-24T02:47:27.715Z,11.3
2024-03-24T02:48:42.010Z,12.1
2024-03-24T02:49:56.304Z,10.1
2024-03-24T02:51:10.598Z,10
2024-03-24T02:52:24.892Z,9.1
2024-03-24T02:53:39.186Z,11.1
2024-03-24T02:54:53.480Z,10.4
2024-03-24T02:56:07.774Z,10.1
2024-03-24T02:57:22.068Z,10.8
2024-03-24T02:58:36.362Z,8.5
2024-03-24T02:59:50.656Z,8.8
2024-03-24T03:01:03.966Z,10.9
2024-03-24T03:02:18.260Z,11.4
2024-03-24T03:03:32.554Z,11.1
2024-03-24T03:04:46.848Z,10.3
2024-03-24T03:06:01.142Z,10.7
2024-03-24T03:07:15.436Z,8.7
2024-03-24T03:08:29.730Z,8.7
2024-03-24T03:09:44.024Z,9.5
2024-03-24T03:10:58.318Z,9.5
2024-03-24T03:12:12.612Z,9.6
2024-03-24T03:13:26.906Z,9.7
2024-03-24T03:14:41.200Z,9.8
2024-03-24T03:15:55.494Z,8.8
2024-03-24T03:17:08.804Z,9
2024-03-24T03:18:23.098Z,10.9
2024-03-24T03:19:37.392Z,10
2024-03-24T03:20:51.686Z,9.1
2024-03-24T03:22:05.980Z,9.9
2024-03-24T03:23:20.274Z,11.7
2024-03-24T03:24:34.568Z,10.3
2024-03-24T03:25:48.862Z,10.4
2024-03-24T03:27:03.155Z,9.8
2024-03-24T03:28:17.450Z,10.9
2024-03-24T03:29:31.744Z,11.3
2024-03-24T03:30:46.038Z,11.1
2024-03-24T03:32:00.332Z,11.3
2024-03-24T03:33:13.642Z,9.7
2024-03-24T03:34:27.936Z,11.8
2024-03-24T03:35:42.229Z,11.1
2024-03-24T03:36:56.523Z,11.5
2024-03-24T03:38:10.817Z,10.2
2024-03-24T03:39:25.112Z,10.8
2024-03-24T03:40:39.405Z,11.7
2024-03-24T03:41:53.699Z,10.7
2024-03-24T03:43:07.993Z,10.2
2024-03-24T03:44:22.287Z,10.7
2024-03-24T03:45:36.581Z,11.2
2024-03-24T03:46:50.875Z,10
2024-03-24T03:48:05.169Z,10.2
2024-03-24T03:49:18.479Z,10.8
2024-03-24T03:50:32.774Z,11.2
2024-03-24T03:51:47.068Z,10.2
2024-03-24T03:53:01.361Z,10.6
2024-03-24T03:54:15.655Z,11.5
2024-03-24T03:55:29.950Z,11.1
2024-03-24T03:56:44.244Z,11.9
2024-03-24T03:57:58.538Z,11.8
2024-03-24T03:59:12.832Z,10.8
2024-03-24T04:00:27.127Z,11.4
2024-03-24T04:01:41.421Z,10
2024-03-24T04:02:55.714Z,11.3
2024-03-24T04:04:10.008Z,11.9
2024-03-24T04:05:23.318Z,10.9
2024-03-24T04:06:37.612Z,10.2
2024-03-24T04:07:51.906Z,10.8
2024-03-24T04:09:06.200Z,11.1
2024-03-24T04:10:19.515Z,11.5
2024-03-24T04:11:33.809Z,10.4
2024-03-24T04:12:48.104Z,10.6
2024-03-24T04:14:02.398Z,10.5
2024-03-24T04:15:16.691Z,10.4
2024-03-24T04:16:30.985Z,11.6
2024-03-24T04:17:45.279Z,12
2024-03-24T04:18:59.573Z,10.3
2024-03-24T04:20:13.867Z,10.8
2024-03-24T04:21:28.161Z,10.3
2024-03-24T04:22:42.455Z,12.6
2024-03-24T04:23:56.749Z,12
2024-03-24T04:25:11.043Z,10.5
2024-03-24T04:26:24.310Z,10.8
2024-03-24T04:27:38.550Z,10
2024-03-24T04:28:52.844Z,10.8
2024-03-24T04:30:07.139Z,10.4
2024-03-24T04:31:21.433Z,9.9
2024-03-24T04:32:35.727Z,9.8
2024-03-24T04:33:50.022Z,10.4
2024-03-24T04:35:04.317Z,12.5
2024-03-24T04:36:18.568Z,10
2024-03-24T04:37:32.808Z,10.7
2024-03-24T04:38:47.048Z,9.8
2024-03-24T04:40:01.288Z,11
2024-03-24T04:41:15.528Z,9
2024-03-24T04:42:28.784Z,11
2024-03-24T04:43:43.024Z,9.2
2024-03-24T04:44:57.264Z,10.4
2024-03-24T04:46:11.504Z,10.4
2024-03-24T04:47:25.744Z,11.3
2024-03-24T04:48:39.984Z,11.1
2024-03-24T04:49:54.224Z,8.7
2024-03-24T04:51:08.464Z,11.8
2024-03-24T04:52:22.704Z,10.6
2024-03-24T04:53:36.944Z,9.9
2024-03-24T04:54:51.185Z,11.8
2024-03-24T04:56:05.425Z,10.3
2024-03-24T04:57:19.665Z,8.2
2024-03-24T04:58:32.921Z,10
2024-03-24T04:59:47.161Z,11.4
2024-03-24T05:01:01.401Z,10.9
2024-03-24T05:02:15.641Z,10.4
2024-03-24T05:03:29.881Z,9.7
2024-03-24T05:04:44.121Z,11.1
2024-03-24T05:05:58.361Z,11.5
2024-03-24T05:07:12.601Z,12.3
2024-03-24T05:08:26.841Z,14
2024-03-24T05:09:41.081Z,10.2
2024-03-24T05:10:55.321Z,10.1
2024-03-24T05:12:09.562Z,11.3
2024-03-24T05:13:23.802Z,11.7
2024-03-24T05:14:37.058Z,11.4
2024-03-24T05:15:51.298Z,11
2024-03-24T05:17:05.538Z,14.1
2024-03-24T05:18:19.778Z,13.8
2024-03-24T05:19:34.018Z,9.4
2024-03-24T05:20:48.258Z,10.8
2024-03-24T05:22:02.498Z,12.7
2024-03-24T05:23:16.738Z,10.7
2024-03-24T05:24:30.978Z,11.5
2024-03-24T05:25:45.218Z,10.1
2024-03-24T05:26:59.458Z,11.6
2024-03-24T05:28:13.698Z,9.3
2024-03-24T05:29:27.938Z,9.7
2024-03-24T05:30:41.194Z,10.8
2024-03-24T05:31:55.435Z,11
2024-03-24T05:33:09.674Z,9.2
2024-03-24T05:34:23.914Z,9.8
2024-03-24T05:35:38.154Z,12.3
2024-03-24T05:36:52.395Z,10.4
2024-03-24T05:38:06.636Z,9.7
2024-03-24T05:39:20.876Z,11.8
2024-03-24T05:40:35.116Z,10.1
2024-03-24T05:41:49.356Z,11.2
2024-03-24T05:43:03.595Z,9
2024-03-24T05:44:17.835Z,9.7
2024-03-24T05:45:32.075Z,9.9
2024-03-24T05:46:45.331Z,13.3
2024-03-24T05:47:59.571Z,8.5
2024-03-24T05:49:13.811Z,8.6
2024-03-24T05:50:28.051Z,11.5
2024-03-24T05:51:42.291Z,11.2
2024-03-24T05:52:56.531Z,10.5
2024-03-24T05:54:10.771Z,11.2
2024-03-24T05:55:25.010Z,9.6
2024-03-24T05:56:39.250Z,8.3
2024-03-24T05:57:53.490Z,8.4
2024-03-24T05:59:07.729Z,7.8
2024-03-24T06:00:21.969Z,11.5
2024-03-24T06:01:36.208Z,8
2024-03-24T06:02:49.464Z,12
2024-03-24T06:04:03.703Z,11.1
2024-03-24T06:05:17.943Z,9.5
2024-03-24T06:06:32.182Z,9.5
2024-03-24T06:07:46.422Z,9.3
2024-03-24T06:09:00.661Z,10.4
2024-03-24T06:10:14.901Z,10
2024-03-24T06:11:29.141Z,10.1
2024-03-24T06:12:43.380Z,9.1
2024-03-24T06:13:57.620Z,9.2
2024-03-24T06:15:11.860Z,10.1
2024-03-24T06:16:26.100Z,10.2
2024-03-24T06:17:40.340Z,9.2
2024-03-24T06:18:53.596Z,11.5
2024-03-24T06:20:07.836Z,9.3
2024-03-24T06:21:22.077Z,10.7
2024-03-24T06:22:36.317Z,12.4
2024-03-24T06:23:50.557Z,10.3
2024-03-24T06:25:04.797Z,11
2024-03-24T06:26:19.037Z,12.5
2024-03-24T06:27:33.277Z,9.7
2024-03-24T06:28:47.517Z,9.3
2024-03-24T06:30:01.758Z,13.1
2024-03-24T06:31:15.998Z,11
2024-03-24T06:32:30.238Z,11.8
2024-03-24T06:33:44.478Z,10.3
2024-03-24T06:34:57.734Z,11.5
2024-03-24T06:36:11.974Z,10.4
2024-03-24T06:37:26.214Z,10
2024-03-24T06:38:40.435Z,9.5
2024-03-24T06:39:54.693Z,10.2
2024-03-24T06:41:08.934Z,10
2024-03-24T06:42:23.174Z,8.8
2024-03-24T06:43:37.414Z,11
2024-03-24T06:44:51.654Z,10.4
2024-03-24T06:46:05.895Z,12.2
2024-03-24T06:47:20.135Z,10.8
2024-03-24T06:48:34.375Z,10.7
2024-03-24T06:49:48.615Z,10.9
2024-03-24T06:51:01.871Z,9.5
2024-03-24T06:52:16.111Z,9
2024-03-24T06:53:30.351Z,11.1
2024-03-24T06:54:44.591Z,12.1
2024-03-24T06:55:58.831Z,11.1
2024-03-24T06:57:13.071Z,9.4
2024-03-24T06:58:27.311Z,12.2
2024-03-24T06:59:41.551Z,9.9
2024-03-24T07:00:55.791Z,10.9
2024-03-24T07:02:10.030Z,10.7
2024-03-24T07:03:24.270Z,11.5
2024-03-24T07:04:38.509Z,11.6
2024-03-24T07:05:52.749Z,10.1
2024-03-24T07:07:06.005Z,9.5
2024-03-24T07:08:20.244Z,9.8
2024-03-24T07:09:34.484Z,11.2
2024-03-24T07:10:48.723Z,10.8
2024-03-24T07:12:02.962Z,11.2
2024-03-24T07:13:17.202Z,12
2024-03-24T07:14:31.442Z,9.7
2024-03-24T07:15:45.681Z,11.4
2024-03-24T07:16:59.921Z,8.8
2024-03-24T07:18:14.160Z,10.7
2024-03-24T07:19:28.400Z,11.4
2024-03-24T07:20:42.639Z,10.4
2024-03-24T07:21:56.879Z,11.3
2024-03-24T07:23:10.134Z,10.4
2024-03-24T07:24:24.374Z,12.7
2024-03-24T07:25:38.614Z,8.9
2024-03-24T07:26:52.854Z,11.3
2024-03-24T07:28:07.093Z,13
2024-03-24T07:29:21.333Z,10.7
2024-03-24T07:30:35.573Z,11.7
2024-03-24T07:31:49.813Z,12.9
2024-03-24T07:33:04.053Z,13.6
2024-03-24T07:34:18.293Z,12.8
2024-03-24T07:35:32.533Z,10.8
2024-03-24T07:36:46.772Z,10.2
2024-03-24T07:38:01.012Z,9.4
2024-03-24T07:39:14.268Z,10.4
2024-03-24T07:40:28.507Z,9.9
2024-03-24T07:41:42.747Z,10.1
2024-03-24T07:42:56.986Z,9.8
2024-03-24T07:44:11.226Z,9.1
2024-03-24T07:45:25.465Z,11.8
2024-03-24T07:46:39.705Z,9.9
2024-03-24T07:47:53.945Z,10.7
2024-03-24T07:49:08.185Z,10.9
2024-03-24T07:50:22.425Z,10
2024-03-24T07:51:36.665Z,9.3
2024-03-24T07:52:50.905Z,10.8
2024-03-24T07:54:05.144Z,9.6
2024-03-24T07:55:18.400Z,9.4
2024-03-24T07:56:32.640Z,10.2
2024-03-24T07:57:46.880Z,9.6
2024-03-24T07:59:01.120Z,11.2
2024-03-24T08:00:15.359Z,10.4
2024-03-24T08:01:29.599Z,9.1
2024-03-24T08:02:43.838Z,8.8
2024-03-24T08:03:58.078Z,10.2
2024-03-24T08:05:12.317Z,8.7
2024-03-24T08:06:26.557Z,8.8
2024-03-24T08:07:40.798Z,10.5
2024-03-24T08:08:55.037Z,10.1
2024-03-24T08:10:09.277Z,9.7
2024-03-24T08:11:22.533Z,9
2024-03-24T08:12:36.772Z,10.1
2024-03-24T08:13:51.012Z,10
2024-03-24T08:15:05.252Z,9.2
2024-03-24T08:16:19.491Z,10
2024-03-24T08:17:33.731Z,8.6
2024-03-24T08:18:46.992Z,10.6
2024-03-24T08:20:01.232Z,10.1
2024-03-24T08:21:15.471Z,10.1
2024-03-24T08:22:29.711Z,10.9
2024-03-24T08:23:43.950Z,9.5
2024-03-24T08:24:58.190Z,10.7
2024-03-24T08:26:12.430Z,9.1
2024-03-24T08:27:26.669Z,10.5
2024-03-24T08:28:40.909Z,9.5
2024-03-24T08:29:55.149Z,10.2
2024-03-24T08:31:09.388Z,10.1
2024-03-24T08:32:23.628Z,9.4
2024-03-24T08:33:37.868Z,9.5
2024-03-24T08:34:51.123Z,8.8
2024-03-24T08:36:05.363Z,8.6
2024-03-24T08:37:19.603Z,9.4
2024-03-24T08:38:33.842Z,8.9
2024-03-24T08:39:48.082Z,9.2
2024-03-24T08:41:02.322Z,9.9
2024-03-24T08:42:16.562Z,9.9
2024-03-24T08:43:30.801Z,10.7
2024-03-24T08:44:45.041Z,8.6
2024-03-24T08:45:59.280Z,8.3
2024-03-24T08:47:13.520Z,9.5
2024-03-24T08:48:27.759Z,8.9
2024-03-24T08:49:41.999Z,9.7
2024-03-24T08:50:55.255Z,9.4
2024-03-24T08:52:09.495Z,9.4
2024-03-24T08:53:23.734Z,10.5
2024-03-24T08:54:37.974Z,8.3
2024-03-24T08:55:52.213Z,9.4
2024-03-24T08:57:06.453Z,8.7
2024-03-24T08:58:20.692Z,9.9
2024-03-24T08:59:34.932Z,9.3
2024-03-24T09:00:49.172Z,8.7
2024-03-24T09:02:03.411Z,8.3
2024-03-24T09:03:17.651Z,7.7
2024-03-24T09:04:31.891Z,10.3
2024-03-24T09:05:46.130Z,9.7
2024-03-24T09:06:59.386Z,9.8
2024-03-24T09:08:13.625Z,10.1
2024-03-24T09:09:27.865Z,10.4
2024-03-24T09:10:42.105Z,10
2024-03-24T09:11:56.344Z,9.8
2024-03-24T09:13:10.584Z,9.1
2024-03-24T09:14:24.824Z,9.4
2024-03-24T09:15:39.063Z,10.7
2024-03-24T09:16:53.303Z,10.7
2024-03-24T09:18:07.543Z,9.9
2024-03-24T09:19:21.782Z,10
2024-03-24T09:20:36.022Z,10.9
2024-03-24T09:21:50.262Z,11.2
2024-03-24T09:23:03.518Z,10.7
2024-03-24T09:24:17.758Z,9.9
2024-03-24T09:25:31.997Z,10.1
2024-03-24T09:26:46.237Z,10.6
2024-03-24T09:28:00.477Z,10.5
2024-03-24T09:29:14.716Z,11.4
2024-03-24T09:30:28.956Z,11.4
2024-03-24T09:31:43.196Z,9.4
2024-03-24T09:32:57.436Z,11
2024-03-24T09:34:11.676Z,9.6
2024-03-24T09:35:25.916Z,8.4
2024-03-24T09:36:40.156Z,9.7
2024-03-24T09:37:54.395Z,9.8
2024-03-24T09:39:07.651Z,10
2024-03-24T09:40:21.890Z,8.4
2024-03-24T09:41:36.130Z,11.4
2024-03-24T09:42:50.369Z,9.6
2024-03-24T09:44:04.609Z,9.5
2024-03-24T09:45:18.849Z,9.4
2024-03-24T09:46:33.088Z,10.8
2024-03-24T09:47:47.328Z,9.4
2024-03-24T09:49:01.567Z,10.1
2024-03-24T09:50:15.806Z,8.6
2024-03-24T09:51:30.046Z,8.8
2024-03-24T09:52:44.286Z,9.6
2024-03-24T09:53:58.526Z,10.5
2024-03-24T09:55:11.782Z,8.5
2024-03-24T09:56:26.022Z,8
2024-03-24T09:57:40.262Z,7.8
2024-03-24T09:58:54.501Z,8.6
2024-03-24T10:00:08.741Z,8.8
2024-03-24T10:01:22.981Z,9
2024-03-24T10:02:37.220Z,8.3
2024-03-24T10:03:51.460Z,8.8
2024-03-24T10:05:05.699Z,9.8
2024-03-24T10:06:19.940Z,9
2024-03-24T10:07:34.179Z,8.9
2024-03-24T10:08:48.419Z,8.7
2024-03-24T10:10:02.659Z,8.5
2024-03-24T10:11:16.898Z,8.7
2024-03-24T10:12:30.154Z,8.7
2024-03-24T10:13:44.394Z,9.4
2024-03-24T10:14:58.634Z,7
2024-03-24T10:16:12.873Z,7.7
2024-03-24T10:17:27.114Z,8
2024-03-24T10:18:41.353Z,7.3
2024-03-24T10:19:55.593Z,7.8
2024-03-24T10:21:09.833Z,7.6
2024-03-24T10:22:24.072Z,8.9
2024-03-24T10:23:38.312Z,8.1
2024-03-24T10:24:52.552Z,7.4
2024-03-24T10:26:06.793Z,8.8
2024-03-24T10:27:21.033Z,7.6
2024-03-24T10:28:34.289Z,8.2
2024-03-24T10:29:48.528Z,8.5
2024-03-24T10:31:02.768Z,8.3
2024-03-24T10:32:17.009Z,9.5
2024-03-24T10:33:31.249Z,8.6
2024-03-24T10:34:45.488Z,7.9
2024-03-24T10:35:59.728Z,8.8
2024-03-24T10:37:13.967Z,7.7
2024-03-24T10:38:28.207Z,8
2024-03-24T10:39:42.447Z,8.6
2024-03-24T10:40:56.686Z,8.1
2024-03-24T10:42:10.926Z,7.5
2024-03-24T10:43:25.166Z,8.6
2024-03-24T10:44:38.422Z,9.2
2024-03-24T10:45:52.662Z,9.3
2024-03-24T10:47:06.902Z,7.6
2024-03-24T10:48:21.141Z,8.4
2024-03-24T10:49:35.381Z,7.4
2024-03-24T10:50:49.621Z,8.4
2024-03-24T10:52:03.860Z,8.6
2024-03-24T10:53:18.100Z,8.1
2024-03-24T10:54:32.340Z,9.2
2024-03-24T10:55:46.579Z,8.1
2024-03-24T10:57:00.819Z,7.2
2024-03-24T10:58:15.059Z,8.8
2024-03-24T10:59:29.299Z,8.2
2024-03-24T11:00:42.554Z,8.6
2024-03-24T11:01:56.794Z,8.4
2024-03-24T11:03:11.034Z,8.7
2024-03-24T11:04:25.273Z,6.9
2024-03-24T11:05:39.513Z,8.7
2024-03-24T11:06:53.752Z,8
2024-03-24T11:08:07.992Z,7.5
2024-03-24T11:09:22.232Z,6.9
2024-03-24T11:10:36.472Z,6.6
2024-03-24T11:11:50.711Z,8.5
2024-03-24T11:13:04.951Z,8
2024-03-24T11:14:19.190Z,6.7
2024-03-24T11:15:33.430Z,7.1
2024-03-24T11:16:46.686Z,7.7
2024-03-24T11:18:00.925Z,6.5
2024-03-24T11:19:15.164Z,7.5
2024-03-24T11:20:29.403Z,6.5
2024-03-24T11:21:43.643Z,6
2024-03-24T11:22:57.883Z,6.7
2024-03-24T11:24:12.122Z,5.1
2024-03-24T11:25:26.361Z,8.1
2024-03-24T11:26:40.600Z,5.9
2024-03-24T11:27:54.840Z,6.4
2024-03-24T11:29:09.079Z,5.5
2024-03-24T11:30:23.319Z,5.7
2024-03-24T11:31:37.559Z,5.6
2024-03-24T11:32:50.814Z,4.7
2024-03-24T11:34:05.054Z,4
2024-03-24T11:35:19.293Z,3.9
2024-03-24T11:36:33.533Z,5.4
2024-03-24T11:37:47.773Z,2.6
2024-03-24T11:39:02.012Z,5.3
2024-03-24T11:40:16.251Z,4.7
2024-03-24T11:41:30.491Z,4.3
2024-03-24T11:42:44.731Z,3.4
2024-03-24T11:43:58.971Z,5.4
2024-03-24T11:45:13.210Z,5.3
2024-03-24T11:46:27.450Z,4.8
2024-03-24T11:47:41.689Z,5.9
2024-03-24T11:48:54.945Z,3.7
2024-03-24T11:50:09.185Z,3.6
2024-03-24T11:51:23.424Z,4.3
2024-03-24T11:52:37.664Z,3.9
2024-03-24T11:53:51.904Z,4.4
2024-03-24T11:55:06.144Z,4.7
2024-03-24T11:56:20.384Z,4.7
2024-03-24T11:57:34.623Z,4.2
2024-03-24T11:58:48.863Z,6.4
2024-03-24T12:00:03.102Z,5.3
2024-03-24T12:01:17.342Z,4.2
2024-03-24T12:02:31.582Z,4.3
2024-03-24T12:03:45.822Z,4.9
2024-03-24T12:04:59.078Z,3.6
2024-03-24T12:06:13.317Z,4.1
2024-03-24T12:07:27.557Z,4.5
2024-03-24T12:08:41.796Z,5.2
2024-03-24T12:09:56.036Z,5.1
2024-03-24T12:11:10.275Z,3.6
2024-03-24T12:12:24.515Z,4.6
2024-03-24T12:13:38.754Z,4.5
2024-03-24T12:14:52.994Z,5.8
2024-03-24T12:16:07.234Z,5.9
2024-03-24T12:17:21.473Z,5.1
2024-03-24T12:18:35.713Z,5.5
2024-03-24T12:19:49.953Z,5.3
2024-03-24T12:21:03.208Z,5
2024-03-24T12:22:17.448Z,7.6
2024-03-24T12:23:31.687Z,7.6
2024-03-24T12:24:45.927Z,6.5
2024-03-24T12:26:00.167Z,7.9
2024-03-24T12:27:13.428Z,6.7
2024-03-24T12:28:27.667Z,7.2
2024-03-24T12:29:41.907Z,8.9
2024-03-24T12:30:56.146Z,7.2
2024-03-24T12:32:10.386Z,6.5
2024-03-24T12:33:24.626Z,7
2024-03-24T12:34:38.865Z,7.8
2024-03-24T12:35:53.105Z,8
2024-03-24T12:37:07.345Z,8.1
2024-03-24T12:38:21.584Z,8
2024-03-24T12:39:35.825Z,7.5
2024-03-24T12:40:50.064Z,8
2024-03-24T12:42:04.304Z,8.2
2024-03-24T12:43:17.559Z,7.1
2024-03-24T12:44:31.799Z,7.2
2024-03-24T12:45:46.038Z,7.5
2024-03-24T12:47:00.278Z,6.7
2024-03-24T12:48:14.518Z,7.1
2024-03-24T12:49:28.757Z,8.1
2024-03-24T12:50:42.997Z,9.7
2024-03-24T12:51:57.237Z,8
2024-03-24T12:53:11.476Z,9.5
2024-03-24T12:54:25.716Z,8.6
2024-03-24T12:55:39.955Z,10.1
2024-03-24T12:56:54.195Z,8.9
2024-03-24T12:58:08.435Z,9.8
2024-03-24T12:59:21.691Z,10
2024-03-24T13:00:35.930Z,9.3
2024-03-24T13:01:50.170Z,9
2024-03-24T13:03:04.409Z,9.8
2024-03-24T13:04:18.649Z,9.6
2024-03-24T13:05:32.888Z,9.2
2024-03-24T13:06:47.128Z,9.6
2024-03-24T13:08:01.367Z,8.3
2024-03-24T13:09:15.607Z,9.8
2024-03-24T13:10:29.847Z,7.8
2024-03-24T13:11:44.086Z,7.2
2024-03-24T13:12:58.326Z,8.3
2024-03-24T13:14:12.565Z,8.9
2024-03-24T13:15:25.821Z,9.3
2024-03-24T13:16:40.060Z,8
2024-03-24T13:17:54.300Z,7.6
2024-03-24T13:19:08.539Z,8.9
2024-03-24T13:20:22.779Z,9.2
2024-03-24T13:21:37.018Z,9.2
2024-03-24T13:22:51.258Z,8.7
2024-03-24T13:24:05.497Z,8.7
2024-03-24T13:25:19.737Z,7.5
2024-03-24T13:26:33.976Z,7.9
2024-03-24T13:27:48.216Z,8.3
2024-03-24T13:29:02.456Z,7.5
2024-03-24T13:30:16.696Z,8.3
2024-03-24T13:31:29.951Z,8.4
2024-03-24T13:32:44.191Z,6.3
2024-03-24T13:33:58.430Z,7
2024-03-24T13:35:12.669Z,7.1
2024-03-24T13:36:26.909Z,8.6
2024-03-24T13:37:41.148Z,7.1
2024-03-24T13:38:55.388Z,7.7
2024-03-24T13:40:09.627Z,7.4
2024-03-24T13:41:23.867Z,7.2
2024-03-24T13:42:38.107Z,7.9
2024-03-24T13:43:52.346Z,7.5
2024-03-24T13:45:06.586Z,6.3
2024-03-24T13:46:20.825Z,7.3
2024-03-24T13:47:34.081Z,8.2
2024-03-24T13:48:48.320Z,7.8
2024-03-24T13:50:02.560Z,7.4
2024-03-24T13:51:16.799Z,8.2
2024-03-24T13:52:31.039Z,8
2024-03-24T13:53:45.279Z,7.2
2024-03-24T13:54:59.518Z,8.5
2024-03-24T13:56:13.758Z,7.1
2024-03-24T13:57:27.997Z,8.7
2024-03-24T13:58:42.237Z,8.9
2024-03-24T13:59:56.476Z,7.7
2024-03-24T14:01:10.716Z,7.8
2024-03-24T14:02:24.955Z,6.4
2024-03-24T14:03:38.211Z,8.3
2024-03-24T14:04:52.450Z,8.7
2024-03-24T14:06:06.691Z,7.9
2024-03-24T14:07:20.930Z,6.4
2024-03-24T14:08:35.170Z,6
2024-03-24T14:09:49.409Z,6.8
2024-03-24T14:11:03.648Z,7.3
2024-03-24T14:12:17.888Z,8
2024-03-24T14:13:32.128Z,6.1
2024-03-24T14:14:46.368Z,5.8
2024-03-24T14:16:00.607Z,6.7
2024-03-24T14:17:14.847Z,10.1
2024-03-24T14:18:29.086Z,8.7
2024-03-24T14:19:42.342Z,10.4
2024-03-24T14:20:56.582Z,7.5
2024-03-24T14:22:10.822Z,9.5
2024-03-24T14:23:25.061Z,10
2024-03-24T14:24:39.302Z,7.5
2024-03-24T14:25:53.542Z,6.9
2024-03-24T14:27:07.782Z,10
2024-03-24T14:28:22.022Z,8.5
2024-03-24T14:29:36.261Z,7.4
2024-03-24T14:30:50.502Z,6.4
2024-03-24T14:32:04.742Z,8.1
2024-03-24T14:33:18.981Z,7.8
2024-03-24T14:34:33.220Z,7.3
2024-03-24T14:35:46.476Z,8.1
2024-03-24T14:37:00.716Z,7.4
2024-03-24T14:38:14.955Z,8.1
2024-03-24T14:39:29.195Z,7.9
2024-03-24T14:40:43.435Z,6.9
2024-03-24T14:41:57.674Z,7.9
2024-03-24T14:43:11.914Z,7.2
2024-03-24T14:44:26.153Z,9.7
2024-03-24T14:45:40.393Z,6.5
2024-03-24T14:46:54.632Z,6
2024-03-24T14:48:08.872Z,6.8
2024-03-24T14:49:23.111Z,7.4
2024-03-24T14:50:37.351Z,7.2
2024-03-24T14:51:50.607Z,6.2
2024-03-24T14:53:04.847Z,9.1
2024-03-24T14:54:19.087Z,6.8
2024-03-24T14:55:33.326Z,7.4
2024-03-24T14:56:47.567Z,6.9
2024-03-24T14:58:01.806Z,6.5
2024-03-24T14:59:16.046Z,5.9
2024-03-24T15:00:30.286Z,9.2
2024-03-24T15:01:44.525Z,7.6
2024-03-24T15:02:58.765Z,6.3
2024-03-24T15:04:13.005Z,5.2
2024-03-24T15:05:27.244Z,6.1
2024-03-24T15:06:41.484Z,5.8
2024-03-24T15:07:54.740Z,7.3
2024-03-24T15:09:08.980Z,6.8
2024-03-24T15:10:23.220Z,12.1
2024-03-24T15:11:37.460Z,8.2
2024-03-24T15:12:51.700Z,7.7
2024-03-24T15:14:05.939Z,8.1
2024-03-24T15:15:20.179Z,7.2
2024-03-24T15:16:34.419Z,6.7
2024-03-24T15:17:48.659Z,5.9
2024-03-24T15:19:02.899Z,4.8
2024-03-24T15:20:17.139Z,5.7
2024-03-24T15:21:31.378Z,7.1
2024-03-24T15:22:45.619Z,5.2
2024-03-24T15:23:58.875Z,5.7
2024-03-24T15:25:13.114Z,5.6
2024-03-24T15:26:27.354Z,5.5
2024-03-24T15:27:41.594Z,7.3
2024-03-24T15:28:55.834Z,6.8
2024-03-24T15:30:10.074Z,6.2
2024-03-24T15:31:24.313Z,5.6
2024-03-24T15:32:38.553Z,6.2
2024-03-24T15:33:52.792Z,6.6
2024-03-24T15:35:07.032Z,5.7
2024-03-24T15:36:21.272Z,7.1
2024-03-24T15:37:35.511Z,5.1
2024-03-24T15:38:49.751Z,7.3
2024-03-24T15:40:03.007Z,6.5
2024-03-24T15:41:17.246Z,5.2
2024-03-24T15:42:31.486Z,7.4
2024-03-24T15:43:45.725Z,6.5
2024-03-24T15:44:59.965Z,6
2024-03-24T15:46:14.204Z,5.6
2024-03-24T15:47:28.444Z,6.2
2024-03-24T15:48:42.683Z,6
2024-03-24T15:49:56.923Z,6.2
2024-03-24T15:51:11.163Z,6.8
2024-03-24T15:52:25.402Z,4.8
2024-03-24T15:53:39.642Z,6
2024-03-24T15:54:53.881Z,6
2024-03-24T15:56:07.137Z,6.8
2024-03-24T15:57:21.376Z,11.1
2024-03-24T15:58:35.616Z,7
2024-03-24T15:59:49.856Z,9.2
2024-03-24T16:01:04.096Z,9.8
2024-03-24T16:02:18.335Z,7.6
2024-03-24T16:03:32.575Z,7.4
2024-03-24T16:04:46.814Z,6.1
2024-03-24T16:06:01.054Z,9.5
2024-03-24T16:07:15.293Z,8.9
2024-03-24T16:08:29.533Z,6.6
2024-03-24T16:09:43.773Z,7
2024-03-24T16:10:58.013Z,7.3
2024-03-24T16:12:11.268Z,6.2
2024-03-24T16:13:25.508Z,8.3
2024-03-24T16:14:39.748Z,6.8
2024-03-24T16:15:53.987Z,8.2
2024-03-24T16:17:08.227Z,7.3
2024-03-24T16:18:22.466Z,6
2024-03-24T16:19:36.706Z,6.7
2024-03-24T16:20:50.945Z,7.4
2024-03-24T16:22:05.185Z,9.8
2024-03-24T16:23:19.425Z,8.4
2024-03-24T16:24:33.665Z,7.7
2024-03-24T16:25:47.905Z,6.8
2024-03-24T16:27:02.145Z,9
2024-03-24T16:28:15.401Z,7.8
2024-03-24T16:29:29.640Z,9.3
2024-03-24T16:30:43.880Z,8.9
2024-03-24T16:31:58.120Z,8.3
2024-03-24T16:33:12.360Z,7.9
2024-03-24T16:34:26.599Z,9.2
2024-03-24T16:35:39.860Z,7.5
2024-03-24T16:36:54.100Z,8.5
2024-03-24T16:38:08.340Z,8.2
2024-03-24T16:39:22.579Z,7.9
2024-03-24T16:40:36.819Z,9.6
2024-03-24T16:41:51.059Z,8.8
2024-03-24T16:43:05.298Z,8.9
2024-03-24T16:44:19.538Z,8.4
2024-03-24T16:45:33.778Z,9.9
2024-03-24T16:46:48.017Z,10.4
2024-03-24T16:48:02.257Z,11.5
2024-03-24T16:49:16.497Z,9.8
2024-03-24T16:50:30.736Z,10.7
2024-03-24T16:51:43.992Z,11.9
2024-03-24T16:52:58.232Z,14.2
2024-03-24T16:54:12.471Z,11.3
2024-03-24T16:55:26.711Z,11